x

Smith Island, Wa (sisw1) Weather Station

9:00 - Sat 25th Mar 2017 All times are PDT. -7 hours from GMT.

  • Wind
    2mph
  • Luft Temp 45°f
  • Sea Pressure 1017.5mb
  • Smith Island, Wa
  • Smith Island, Wa

More Historic Weather Station data

Upgrade to MSW Pro to gain access to the past 30 days of data for over 8000 Wavebouys and Weather Stations around the globe.

Join Pro

Comparision Forecast

View Surf forecast
   
Sa 03/25 9:00 2
mph
1017.5mb 45f
8:00 8 9 mph 1018mb 45f
7:00 6 9 mph 1018.4mb 45f
6:00 14 16 mph 1018.4mb 46f
5:00 11 15 mph 1018.7mb 46f
4:00 6 7 mph 1019mb 47f
3:00 2 3 mph 1019.1mb 48f
2:00 2
mph
1019.5mb 47f
1:00 3 5 mph 1019.7mb 47f
12:00 3 6 mph 1019.8mb 46f
11:00 6 8 mph 1019.3mb 47f
10:00 8 10 mph 1019.2mb 45f
9:00 5 7 mph 1018.4mb 45f
8:00 10 11 mph 1018.2mb 45f
7:00 13 15 mph 1017.4mb 45f
6:00 15 24 mph 1016.9mb 45f
5:00 9 11 mph 1016.8mb 45f
4:00 14 16 mph 1016.2mb 45f
3:00 8 10 mph 1016mb 45f
2:00 16 20 mph 1015.2mb 45f
1:00 22 25 mph 1014.4mb 45f
12:00 15 17 mph 1014.1mb 45f
Fr 03/24 11:00 9 10 mph 1013.8mb 45f
10:00 6
mph
1012.8mb 46f
9:00 6 7 mph 1012.1mb 46f
8:00 5 6 mph 1011.2mb 46f
7:00 6 7 mph 1010.4mb 47f
6:00 3
mph
1009.5mb 49f
5:00  -  2 mph 1009.2mb 48f
4:00 3 5 mph 1008.4mb 50f
3:00 23 25 mph 1007.5mb 51f
2:00 29 31 mph 1007.6mb 51f
1:00 21 23 mph 1007.8mb 50f
12:00 21 23 mph 1007.5mb 51f
11:00 22 24 mph 1007.3mb 49f
10:00 22 25 mph 1006.8mb 47f
9:00 23 24 mph 1006.7mb 46f
8:00 22 24 mph 1006.8mb 46f
7:00 21 23 mph 1006.9mb 45f
6:00 22 24 mph 1006.4mb 46f
5:00 28 32 mph 1006.4mb 45f
4:00 28 31 mph 1007.1mb 45f
3:00 26 30 mph 1008.1mb 44f
2:00 30 32 mph 1009mb 44f
1:00 25 29 mph 1009.8mb 45f
12:00 28 30 mph 1009.9mb 45f
Do 03/23 11:00 28 31 mph 1010.2mb 46f
10:00 24 29 mph 1010.6mb 47f
9:00 28 31 mph 1010.7mb 47f
8:00 30 33 mph 1010.6mb 49f
7:00 18 21 mph 1011.2mb 50f
6:00 18 20 mph 1012mb 50f
5:00 28 30 mph 1012.2mb 50f
4:00 23 28 mph 1013.2mb 50f
3:00 25 28 mph 1014mb 50f
2:00 25 28 mph 1014.8mb 49f
1:00 31 33 mph 1015.5mb 48f
12:00 29 32 mph 1016mb 48f
11:00 32 36 mph 1016.2mb 47f
10:00 28 31 mph 1016.6mb 47f
9:00 22 24 mph 1016.9mb 45f
8:00 22 24 mph 1017mb 44f
7:00 21 24 mph 1017mb 43f
6:00 24 26 mph 1016.9mb 43f
5:00 23 25 mph 1016.4mb 43f
4:00 21 24 mph 1016.6mb 43f
3:00 23 25 mph 1016.5mb 43f
2:00 16 18 mph 1016.9mb 44f
1:00 13 14 mph 1017.3mb 44f
12:00 14 16 mph 1017.1mb 45f
Mi 03/22 11:00 5 7 mph 1016.7mb 46f
10:00 16 20 mph 1016.2mb 46f
9:00 26 32 mph 1015.1mb 46f
8:00 34 39 mph 1013.4mb 47f
7:00 30 37 mph 1012.3mb 47f
6:00 30 33 mph 1011.5mb 47f
5:00 29 31 mph 1010.5mb 47f
4:00 29 36 mph 1009.2mb 51f
3:00 32 36 mph 1008.2mb 50f
2:00 30 34 mph 1008mb 51f
1:00 30 33 mph 1007.8mb 50f
12:00 28 32 mph 1007.8mb 51f
11:00 25 29 mph 1007.4mb 49f
10:00 18 21 mph 1006.9mb 50f
9:00 32 37 mph 1005.9mb 50f
8:00 28 31 mph 1005.5mb 49f
7:00 36 39 mph 1004.4mb 50f
6:00 39 43 mph 1003.5mb 50f